sensor_id;sensor_type;location;lat;lon;timestamp;pressure;altitude;pressure_sealevel;temperature;humidity
16821;BME280;8527;49.740;6.604;2023-04-28T00:03:39;99445.81;;;12.72;92.07
16821;BME280;8527;49.740;6.604;2023-04-28T00:08:41;99429.97;;;12.64;90.29
16821;BME280;8527;49.740;6.604;2023-04-28T00:13:39;99438.53;;;12.59;91.69
16821;BME280;8527;49.740;6.604;2023-04-28T00:18:46;99437.81;;;12.50;94.33
16821;BME280;8527;49.740;6.604;2023-04-28T00:23:45;99427.69;;;12.39;95.16
16821;BME280;8527;49.740;6.604;2023-04-28T00:28:44;99423.09;;;12.33;93.84
16821;BME280;8527;49.740;6.604;2023-04-28T00:33:43;99409.56;;;12.28;94.87
16821;BME280;8527;49.740;6.604;2023-04-28T00:38:44;99410.25;;;12.36;91.68
16821;BME280;8527;49.740;6.604;2023-04-28T00:43:44;99410.44;;;12.35;91.95
16821;BME280;8527;49.740;6.604;2023-04-28T00:48:43;99409.06;;;12.39;93.27
16821;BME280;8527;49.740;6.604;2023-04-28T00:53:44;99395.38;;;12.42;92.40
16821;BME280;8527;49.740;6.604;2023-04-28T00:58:45;99386.38;;;12.43;94.27
16821;BME280;8527;49.740;6.604;2023-04-28T01:03:46;99377.78;;;12.41;94.44
16821;BME280;8527;49.740;6.604;2023-04-28T01:08:48;99381.88;;;12.44;94.50
16821;BME280;8527;49.740;6.604;2023-04-28T01:13:47;99383.72;;;12.43;94.33
16821;BME280;8527;49.740;6.604;2023-04-28T01:18:50;99379.97;;;12.37;94.30
16821;BME280;8527;49.740;6.604;2023-04-28T01:23:54;99377.50;;;12.36;94.06
16821;BME280;8527;49.740;6.604;2023-04-28T01:28:52;99371.09;;;12.30;95.32
16821;BME280;8527;49.740;6.604;2023-04-28T01:33:50;99366.34;;;12.26;95.89
16821;BME280;8527;49.740;6.604;2023-04-28T01:38:51;99361.03;;;12.26;94.40
16821;BME280;8527;49.740;6.604;2023-04-28T01:43:52;99357.75;;;12.23;95.84
16821;BME280;8527;49.740;6.604;2023-04-28T01:48:50;99358.81;;;12.29;96.48
16821;BME280;8527;49.740;6.604;2023-04-28T01:53:48;99347.09;;;12.23;94.56
16821;BME280;8527;49.740;6.604;2023-04-28T01:58:47;99337.09;;;12.26;96.06
16821;BME280;8527;49.740;6.604;2023-04-28T02:03:50;99334.88;;;12.07;96.89
16821;BME280;8527;49.740;6.604;2023-04-28T02:08:49;99325.41;;;12.20;95.11
16821;BME280;8527;49.740;6.604;2023-04-28T02:13:48;99329.72;;;12.21;94.83
16821;BME280;8527;49.740;6.604;2023-04-28T02:18:49;99310.13;;;12.29;95.29
16821;BME280;8527;49.740;6.604;2023-04-28T02:23:47;99318.84;;;12.22;94.45
16821;BME280;8527;49.740;6.604;2023-04-28T02:28:48;99318.84;;;12.22;93.52
16821;BME280;8527;49.740;6.604;2023-04-28T02:33:49;99319.69;;;12.23;95.63
16821;BME280;8527;49.740;6.604;2023-04-28T02:38:48;99322.66;;;12.13;96.06
16821;BME280;8527;49.740;6.604;2023-04-28T02:43:46;99320.66;;;12.15;95.07
16821;BME280;8527;49.740;6.604;2023-04-28T02:48:49;99316.41;;;12.21;94.76
16821;BME280;8527;49.740;6.604;2023-04-28T02:53:48;99308.22;;;12.22;94.45
16821;BME280;8527;49.740;6.604;2023-04-28T02:58:46;99302.59;;;12.10;94.74
16821;BME280;8527;49.740;6.604;2023-04-28T03:03:44;99298.03;;;12.04;96.34
16821;BME280;8527;49.740;6.604;2023-04-28T03:08:45;99290.69;;;12.06;96.87
16821;BME280;8527;49.740;6.604;2023-04-28T03:13:44;99281.72;;;12.07;95.43
16821;BME280;8527;49.740;6.604;2023-04-28T03:18:42;99265.94;;;12.06;95.75
16821;BME280;8527;49.740;6.604;2023-04-28T03:23:40;99274.22;;;11.96;98.44
16821;BME280;8527;49.740;6.604;2023-04-28T03:28:41;99264.94;;;11.92;99.67
16821;BME280;8527;49.740;6.604;2023-04-28T03:33:40;99257.03;;;11.99;98.39
16821;BME280;8527;49.740;6.604;2023-04-28T03:38:39;99261.28;;;11.93;99.37
16821;BME280;8527;49.740;6.604;2023-04-28T03:43:40;99261.09;;;11.94;100.00
16821;BME280;8527;49.740;6.604;2023-04-28T03:48:42;99265.00;;;11.99;100.00
16821;BME280;8527;49.740;6.604;2023-04-28T03:53:40;99264.47;;;12.03;100.00
16821;BME280;8527;49.740;6.604;2023-04-28T03:58:44;99256.63;;;11.95;100.00
16821;BME280;8527;49.740;6.604;2023-04-28T04:03:43;99267.97;;;12.04;100.00
16821;BME280;8527;49.740;6.604;2023-04-28T04:08:45;99257.03;;;11.99;100.00
16821;BME280;8527;49.740;6.604;2023-04-28T04:13:46;99263.38;;;11.98;100.00
16821;BME280;8527;49.740;6.604;2023-04-28T04:18:44;99254.59;;;11.97;100.00
16821;BME280;8527;49.740;6.604;2023-04-28T04:23:43;99239.00;;;11.94;100.00
16821;BME280;8527;49.740;6.604;2023-04-28T04:28:41;99236.59;;;11.99;100.00
16821;BME280;8527;49.740;6.604;2023-04-28T04:33:42;99249.91;;;11.99;100.00
16821;BME280;8527;49.740;6.604;2023-04-28T04:38:45;99252.19;;;12.02;100.00
16821;BME280;8527;49.740;6.604;2023-04-28T04:43:44;99251.41;;;12.02;100.00
16821;BME280;8527;49.740;6.604;2023-04-28T04:48:44;99258.06;;;11.98;100.00
16821;BME280;8527;49.740;6.604;2023-04-28T04:53:43;99257.03;;;11.99;100.00
16821;BME280;8527;49.740;6.604;2023-04-28T04:58:42;99263.19;;;11.99;100.00
16821;BME280;8527;49.740;6.604;2023-04-28T05:03:43;99267.41;;;12.08;100.00
16821;BME280;8527;49.740;6.604;2023-04-28T05:08:42;99275.69;;;12.20;100.00
16821;BME280;8527;49.740;6.604;2023-04-28T05:13:40;99278.22;;;12.29;100.00
16821;BME280;8527;49.740;6.604;2023-04-28T05:18:44;99287.28;;;12.34;100.00
16821;BME280;8527;49.740;6.604;2023-04-28T05:23:42;99285.22;;;12.36;100.00
16821;BME280;8527;49.740;6.604;2023-04-28T05:28:44;99283.19;;;12.38;100.00
16821;BME280;8527;49.740;6.604;2023-04-28T05:33:45;99276.06;;;12.39;100.00
16821;BME280;8527;49.740;6.604;2023-04-28T05:38:43;99267.69;;;12.42;100.00
16821;BME280;8527;49.740;6.604;2023-04-28T05:43:41;99267.78;;;12.56;100.00
16821;BME280;8527;49.740;6.604;2023-04-28T05:48:40;99254.53;;;12.62;100.00
16821;BME280;8527;49.740;6.604;2023-04-28T05:53:41;99257.41;;;12.68;100.00
16821;BME280;8527;49.740;6.604;2023-04-28T05:58:43;99268.31;;;12.73;100.00
16821;BME280;8527;49.740;6.604;2023-04-28T06:03:42;99281.03;;;12.77;100.00
16821;BME280;8527;49.740;6.604;2023-04-28T06:08:43;99301.94;;;12.80;100.00
16821;BME280;8527;49.740;6.604;2023-04-28T06:13:42;99293.28;;;12.72;100.00
16821;BME280;8527;49.740;6.604;2023-04-28T06:18:40;99282.47;;;12.80;100.00
16821;BME280;8527;49.740;6.604;2023-04-28T06:23:39;99286.25;;;12.92;100.00
16821;BME280;8527;49.740;6.604;2023-04-28T06:28:40;99285.22;;;12.93;100.00
16821;BME280;8527;49.740;6.604;2023-04-28T06:33:38;99285.81;;;12.89;100.00
16821;BME280;8527;49.740;6.604;2023-04-28T06:38:36;99289.47;;;12.88;100.00
16821;BME280;8527;49.740;6.604;2023-04-28T06:43:35;99285.25;;;13.00;100.00
16821;BME280;8527;49.740;6.604;2023-04-28T06:48:36;99278.91;;;13.01;100.00
16821;BME280;8527;49.740;6.604;2023-04-28T06:53:34;99278.91;;;13.01;100.00
16821;BME280;8527;49.740;6.604;2023-04-28T06:58:33;99273.38;;;12.96;100.00
16821;BME280;8527;49.740;6.604;2023-04-28T07:03:31;99272.19;;;13.05;100.00
16821;BME280;8527;49.740;6.604;2023-04-28T07:08:33;99282.03;;;13.12;100.00
16821;BME280;8527;49.740;6.604;2023-04-28T07:13:34;99281.06;;;13.19;100.00
16821;BME280;8527;49.740;6.604;2023-04-28T07:18:32;99284.81;;;13.32;100.00
16821;BME280;8527;49.740;6.604;2023-04-28T07:23:33;99283.69;;;13.48;100.00
16821;BME280;8527;49.740;6.604;2023-04-28T07:28:36;99283.59;;;13.90;100.00
16821;BME280;8527;49.740;6.604;2023-04-28T07:33:34;99283.78;;;13.88;100.00
16821;BME280;8527;49.740;6.604;2023-04-28T07:38:35;99292.38;;;13.77;100.00
16821;BME280;8527;49.740;6.604;2023-04-28T07:43:36;99292.00;;;13.80;100.00
16821;BME280;8527;49.740;6.604;2023-04-28T07:48:34;99289.53;;;13.78;100.00
16821;BME280;8527;49.740;6.604;2023-04-28T07:53:35;99291.75;;;13.75;100.00
16821;BME280;8527;49.740;6.604;2023-04-28T07:58:34;99295.50;;;14.01;100.00
16821;BME280;8527;49.740;6.604;2023-04-28T08:03:36;99298.41;;;14.13;100.00
16821;BME280;8527;49.740;6.604;2023-04-28T08:08:37;99305.41;;;14.14;100.00
16821;BME280;8527;49.740;6.604;2023-04-28T08:13:35;99297.16;;;14.09;100.00
16821;BME280;8527;49.740;6.604;2023-04-28T08:18:33;99295.53;;;14.28;100.00
16821;BME280;8527;49.740;6.604;2023-04-28T08:23:32;99292.69;;;14.43;100.00
16821;BME280;8527;49.740;6.604;2023-04-28T08:28:39;99298.44;;;14.60;100.00
16821;BME280;8527;49.740;6.604;2023-04-28T08:33:37;99307.25;;;14.94;100.00
16821;BME280;8527;49.740;6.604;2023-04-28T08:38:38;99305.41;;;14.88;100.00
16821;BME280;8527;49.740;6.604;2023-04-28T08:43:39;99309.94;;;14.87;100.00
16821;BME280;8527;49.740;6.604;2023-04-28T08:48:40;99304.19;;;14.90;100.00
16821;BME280;8527;49.740;6.604;2023-04-28T08:53:43;99302.53;;;14.96;100.00
16821;BME280;8527;49.740;6.604;2023-04-28T08:58:44;99317.34;;;14.99;100.00
16821;BME280;8527;49.740;6.604;2023-04-28T09:03:43;99313.63;;;15.07;100.00
16821;BME280;8527;49.740;6.604;2023-04-28T09:08:43;99315.25;;;15.08;100.00
16821;BME280;8527;49.740;6.604;2023-04-28T09:13:47;99319.13;;;15.18;100.00
16821;BME280;8527;49.740;6.604;2023-04-28T09:18:54;99307.38;;;15.26;100.00
16821;BME280;8527;49.740;6.604;2023-04-28T09:23:56;99311.09;;;15.18;100.00
16821;BME280;8527;49.740;6.604;2023-04-28T09:29:10;99315.66;;;15.18;100.00
16821;BME280;8527;49.740;6.604;2023-04-28T09:34:09;99314.59;;;15.26;100.00
16821;BME280;8527;49.740;6.604;2023-04-28T09:39:10;99312.47;;;15.41;100.00
16821;BME280;8527;49.740;6.604;2023-04-28T09:44:18;99307.50;;;15.52;100.00
16821;BME280;8527;49.740;6.604;2023-04-28T09:49:21;99324.75;;;15.56;100.00
16821;BME280;8527;49.740;6.604;2023-04-28T09:54:20;99313.56;;;15.72;100.00
16821;BME280;8527;49.740;6.604;2023-04-28T09:59:26;99306.50;;;15.92;100.00
16821;BME280;8527;49.740;6.604;2023-04-28T10:04:26;99312.59;;;16.06;100.00
16821;BME280;8527;49.740;6.604;2023-04-28T10:09:27;99314.19;;;16.13;100.00
16821;BME280;8527;49.740;6.604;2023-04-28T10:14:30;99310.66;;;16.20;100.00
16821;BME280;8527;49.740;6.604;2023-04-28T10:19:28;99309.19;;;16.24;100.00
16821;BME280;8527;49.740;6.604;2023-04-28T10:24:28;99301.59;;;16.21;100.00
16821;BME280;8527;49.740;6.604;2023-04-28T10:29:31;99304.47;;;16.19;100.00
16821;BME280;8527;49.740;6.604;2023-04-28T10:34:30;99306.00;;;16.08;100.00
16821;BME280;8527;49.740;6.604;2023-04-28T10:39:32;99295.47;;;16.13;100.00
16821;BME280;8527;49.740;6.604;2023-04-28T10:44:47;99301.16;;;16.24;100.00
16821;BME280;8527;49.740;6.604;2023-04-28T10:50:04;99303.78;;;16.30;100.00
16821;BME280;8527;49.740;6.604;2023-04-28T10:55:30;99307.56;;;16.23;100.00
16821;BME280;8527;49.740;6.604;2023-04-28T11:00:38;99306.06;;;16.27;100.00
16821;BME280;8527;49.740;6.604;2023-04-28T11:05:37;99297.03;;;16.53;100.00
16821;BME280;8527;49.740;6.604;2023-04-28T11:16:07;99291.38;;;17.06;100.00
16821;BME280;8527;49.740;6.604;2023-04-28T11:21:11;99295.94;;;17.05;100.00
16821;BME280;8527;49.740;6.604;2023-04-28T11:26:12;99292.44;;;17.05;100.00
16821;BME280;8527;49.740;6.604;2023-04-28T11:31:15;99286.03;;;17.06;100.00
16821;BME280;8527;49.740;6.604;2023-04-28T11:36:24;99292.22;;;17.25;100.00
16821;BME280;8527;49.740;6.604;2023-04-28T11:41:24;99286.97;;;17.67;100.00
16821;BME280;8527;49.740;6.604;2023-04-28T11:46:28;99288.22;;;17.95;100.00
16821;BME280;8527;49.740;6.604;2023-04-28T11:51:34;99274.22;;;17.93;100.00
16821;BME280;8527;49.740;6.604;2023-04-28T11:56:37;99275.38;;;17.85;100.00
16821;BME280;8527;49.740;6.604;2023-04-28T12:01:47;99272.41;;;17.75;100.00
16821;BME280;8527;49.740;6.604;2023-04-28T12:06:56;99271.81;;;17.73;100.00
16821;BME280;8527;49.740;6.604;2023-04-28T12:11:57;99279.78;;;18.22;100.00
16821;BME280;8527;49.740;6.604;2023-04-28T12:17:00;99260.69;;;18.66;100.00
16821;BME280;8527;49.740;6.604;2023-04-28T12:22:00;99255.91;;;18.56;100.00
16821;BME280;8527;49.740;6.604;2023-04-28T12:27:15;99257.38;;;19.12;100.00
16821;BME280;8527;49.740;6.604;2023-04-28T12:32:18;99259.69;;;19.20;98.17
16821;BME280;8527;49.740;6.604;2023-04-28T12:37:17;99251.13;;;19.64;98.87
16821;BME280;8527;49.740;6.604;2023-04-28T12:42:16;99245.34;;;19.73;97.32
16821;BME280;8527;49.740;6.604;2023-04-28T12:47:20;99249.69;;;19.74;94.37
16821;BME280;8527;49.740;6.604;2023-04-28T12:52:19;99249.16;;;19.60;91.64
16821;BME280;8527;49.740;6.604;2023-04-28T12:57:18;99255.16;;;19.79;92.54
16821;BME280;8527;49.740;6.604;2023-04-28T13:02:17;99251.00;;;19.88;90.72
16821;BME280;8527;49.740;6.604;2023-04-28T13:07:18;99249.53;;;19.80;90.56
16821;BME280;8527;49.740;6.604;2023-04-28T13:12:20;99242.34;;;19.86;90.24
16821;BME280;8527;49.740;6.604;2023-04-28T13:17:18;99236.63;;;20.12;89.97
16821;BME280;8527;49.740;6.604;2023-04-28T13:22:19;99242.97;;;20.40;88.22
16821;BME280;8527;49.740;6.604;2023-04-28T13:27:18;99227.34;;;20.59;85.88
16821;BME280;8527;49.740;6.604;2023-04-28T13:32:17;99235.03;;;20.67;84.62
16821;BME280;8527;49.740;6.604;2023-04-28T13:37:20;99230.19;;;20.86;82.58
16821;BME280;8527;49.740;6.604;2023-04-28T13:42:35;99223.56;;;20.77;81.67
16821;BME280;8527;49.740;6.604;2023-04-28T13:47:36;99220.16;;;20.64;79.50
16821;BME280;8527;49.740;6.604;2023-04-28T13:52:45;99225.53;;;20.82;80.33
16821;BME280;8527;49.740;6.604;2023-04-28T13:58:00;99225.41;;;20.93;79.71
16821;BME280;8527;49.740;6.604;2023-04-28T14:03:05;99215.81;;;20.80;78.95
16821;BME280;8527;49.740;6.604;2023-04-28T14:08:09;99211.38;;;20.91;77.85
16821;BME280;8527;49.740;6.604;2023-04-28T14:13:19;99212.94;;;20.87;76.99
16821;BME280;8527;49.740;6.604;2023-04-28T14:18:20;99202.22;;;20.92;76.66
16821;BME280;8527;49.740;6.604;2023-04-28T14:23:22;99204.84;;;20.87;76.75
16821;BME280;8527;49.740;6.604;2023-04-28T14:28:23;99203.22;;;21.08;77.16
16821;BME280;8527;49.740;6.604;2023-04-28T14:33:22;99203.78;;;21.11;77.50
16821;BME280;8527;49.740;6.604;2023-04-28T14:38:23;99196.06;;;20.97;77.80
16821;BME280;8527;49.740;6.604;2023-04-28T14:43:23;99188.78;;;21.20;76.74
16821;BME280;8527;49.740;6.604;2023-04-28T14:48:30;99189.50;;;21.38;73.85
16821;BME280;8527;49.740;6.604;2023-04-28T14:53:31;99196.00;;;21.42;73.44
16821;BME280;8527;49.740;6.604;2023-04-28T14:58:30;99189.16;;;21.56;72.90
16821;BME280;8527;49.740;6.604;2023-04-28T15:03:31;99183.13;;;21.21;71.61
16821;BME280;8527;49.740;6.604;2023-04-28T15:08:33;99197.06;;;21.13;71.30
16821;BME280;8527;49.740;6.604;2023-04-28T15:13:31;99184.38;;;21.14;71.57
16821;BME280;8527;49.740;6.604;2023-04-28T15:18:30;99183.38;;;21.20;71.16
16821;BME280;8527;49.740;6.604;2023-04-28T15:23:28;99177.28;;;21.30;71.13
16821;BME280;8527;49.740;6.604;2023-04-28T15:28:29;99180.50;;;21.27;70.04
16821;BME280;8527;49.740;6.604;2023-04-28T15:33:28;99179.75;;;21.31;68.89
16821;BME280;8527;49.740;6.604;2023-04-28T15:38:28;99184.00;;;21.27;68.15
16821;BME280;8527;49.740;6.604;2023-04-28T15:43:29;99184.31;;;21.31;69.71
16821;BME280;8527;49.740;6.604;2023-04-28T15:48:28;99179.16;;;21.29;67.57
16821;BME280;8527;49.740;6.604;2023-04-28T15:53:26;99174.78;;;21.23;67.57
16821;BME280;8527;49.740;6.604;2023-04-28T15:58:25;99176.91;;;21.21;67.57
16821;BME280;8527;49.740;6.604;2023-04-28T16:03:26;99175.53;;;21.18;66.53
16821;BME280;8527;49.740;6.604;2023-04-28T16:08:25;99181.13;;;21.12;65.51
16821;BME280;8527;49.740;6.604;2023-04-28T16:13:23;99171.16;;;21.12;63.86
16821;BME280;8527;49.740;6.604;2023-04-28T16:18:27;99173.44;;;20.98;63.36
16821;BME280;8527;49.740;6.604;2023-04-28T16:23:27;99188.59;;;21.04;63.14
16821;BME280;8527;49.740;6.604;2023-04-28T16:28:25;99191.09;;;20.89;62.34
16821;BME280;8527;49.740;6.604;2023-04-28T16:33:26;99180.50;;;20.82;62.80
16821;BME280;8527;49.740;6.604;2023-04-28T16:38:25;99193.03;;;20.71;62.96
16821;BME280;8527;49.740;6.604;2023-04-28T16:43:23;99193.03;;;20.71;61.71
16821;BME280;8527;49.740;6.604;2023-04-28T16:48:22;99198.03;;;20.62;60.78
16821;BME280;8527;49.740;6.604;2023-04-28T16:53:23;99202.22;;;20.53;60.95
16821;BME280;8527;49.740;6.604;2023-04-28T16:58:22;99217.81;;;20.51;59.77
16821;BME280;8527;49.740;6.604;2023-04-28T17:03:20;99215.72;;;20.36;59.45
16821;BME280;8527;49.740;6.604;2023-04-28T17:08:24;99213.34;;;20.40;61.33
16821;BME280;8527;49.740;6.604;2023-04-28T17:13:25;99210.72;;;20.45;60.84
16821;BME280;8527;49.740;6.604;2023-04-28T17:18:24;99212.44;;;20.34;60.52
16821;BME280;8527;49.740;6.604;2023-04-28T17:23:28;99219.41;;;20.30;60.47
16821;BME280;8527;49.740;6.604;2023-04-28T17:28:29;99223.63;;;20.08;60.29
16821;BME280;8527;49.740;6.604;2023-04-28T18:34:39;99281.56;;;18.28;74.84
16821;BME280;8527;49.740;6.604;2023-04-28T18:39:59;99297.28;;;18.13;75.49
16821;BME280;8527;49.740;6.604;2023-04-28T18:45:12;99308.16;;;17.88;76.07
16821;BME280;8527;49.740;6.604;2023-04-28T18:50:55;99309.00;;;17.69;76.61
16821;BME280;8527;49.740;6.604;2023-04-28T18:55:57;99318.56;;;17.47;77.41
16821;BME280;8527;49.740;6.604;2023-04-28T19:00:59;99313.91;;;17.23;77.82
16821;BME280;8527;49.740;6.604;2023-04-28T19:06:02;99315.25;;;17.33;76.80
16821;BME280;8527;49.740;6.604;2023-04-28T19:11:00;99334.59;;;17.16;77.17
16821;BME280;8527;49.740;6.604;2023-04-28T19:15:59;99340.13;;;16.96;78.13
16821;BME280;8527;49.740;6.604;2023-04-28T19:21:03;99338.53;;;16.88;77.94
16821;BME280;8527;49.740;6.604;2023-04-28T19:26:07;99351.34;;;16.86;77.58
16821;BME280;8527;49.740;6.604;2023-04-28T19:31:15;99361.78;;;16.69;77.86
16821;BME280;8527;49.740;6.604;2023-04-28T19:36:16;99367.28;;;16.74;76.70
16821;BME280;8527;49.740;6.604;2023-04-28T19:41:14;99379.84;;;16.48;78.02
16821;BME280;8527;49.740;6.604;2023-04-28T19:46:13;99388.63;;;16.30;78.94
16821;BME280;8527;49.740;6.604;2023-04-28T19:51:12;99390.53;;;16.23;79.26
16821;BME280;8527;49.740;6.604;2023-04-28T19:56:14;99394.31;;;16.08;79.85
16821;BME280;8527;49.740;6.604;2023-04-28T20:01:12;99398.69;;;15.96;79.28
16821;BME280;8527;49.740;6.604;2023-04-28T20:06:14;99401.59;;;15.81;79.25
16821;BME280;8527;49.740;6.604;2023-04-28T20:11:15;99408.41;;;15.77;79.76
16821;BME280;8527;49.740;6.604;2023-04-28T20:16:14;99411.69;;;15.79;79.21
16821;BME280;8527;49.740;6.604;2023-04-28T20:21:15;99417.09;;;15.65;80.26
16821;BME280;8527;49.740;6.604;2023-04-28T20:26:17;99418.97;;;15.51;80.46
16821;BME280;8527;49.740;6.604;2023-04-28T20:31:15;99424.13;;;15.46;80.38
16821;BME280;8527;49.740;6.604;2023-04-28T20:36:17;99429.50;;;15.32;81.87
16821;BME280;8527;49.740;6.604;2023-04-28T20:41:18;99437.28;;;15.27;80.98
16821;BME280;8527;49.740;6.604;2023-04-28T20:46:19;99432.56;;;15.16;81.95
16821;BME280;8527;49.740;6.604;2023-04-28T20:51:18;99430.94;;;15.15;82.14
16821;BME280;8527;49.740;6.604;2023-04-28T20:56:23;99433.19;;;14.98;82.91
16821;BME280;8527;49.740;6.604;2023-04-28T21:01:21;99438.75;;;14.83;84.48
16821;BME280;8527;49.740;6.604;2023-04-28T21:06:20;99432.81;;;14.87;84.17
16821;BME280;8527;49.740;6.604;2023-04-28T21:11:18;99443.25;;;14.89;83.78
16821;BME280;8527;49.740;6.604;2023-04-28T21:16:19;99449.03;;;14.79;84.94
16821;BME280;8527;49.740;6.604;2023-04-28T21:21:18;99451.03;;;14.63;84.95
16821;BME280;8527;49.740;6.604;2023-04-28T21:26:17;99453.44;;;14.52;85.98
16821;BME280;8527;49.740;6.604;2023-04-28T21:31:21;99461.44;;;14.45;85.23
16821;BME280;8527;49.740;6.604;2023-04-28T21:36:19;99464.50;;;14.35;83.28
16821;BME280;8527;49.740;6.604;2023-04-28T21:41:18;99463.31;;;14.44;82.10
16821;BME280;8527;49.740;6.604;2023-04-28T21:46:20;99461.41;;;14.31;81.69
16821;BME280;8527;49.740;6.604;2023-04-28T21:51:19;99453.31;;;14.11;81.90
16821;BME280;8527;49.740;6.604;2023-04-28T21:56:17;99472.84;;;14.12;81.69
16821;BME280;8527;49.740;6.604;2023-04-28T22:01:21;99480.91;;;14.25;81.00
16821;BME280;8527;49.740;6.604;2023-04-28T22:06:19;99484.38;;;14.26;81.10
16821;BME280;8527;49.740;6.604;2023-04-28T22:11:17;99486.00;;;14.27;83.07
16821;BME280;8527;49.740;6.604;2023-04-28T22:16:16;99499.69;;;14.10;85.54
16821;BME280;8527;49.740;6.604;2023-04-28T22:21:17;99502.75;;;14.00;85.09
16821;BME280;8527;49.740;6.604;2023-04-28T22:26:16;99516.25;;;13.99;86.19
16821;BME280;8527;49.740;6.604;2023-04-28T22:31:22;99524.09;;;13.72;86.03
16821;BME280;8527;49.740;6.604;2023-04-28T22:36:23;99532.75;;;13.52;86.47
16821;BME280;8527;49.740;6.604;2023-04-28T22:41:22;99552.38;;;13.44;87.08
16821;BME280;8527;49.740;6.604;2023-04-28T22:46:20;99550.09;;;13.41;87.65
16821;BME280;8527;49.740;6.604;2023-04-28T22:51:19;99558.19;;;13.33;88.09
16821;BME280;8527;49.740;6.604;2023-04-28T22:56:23;99561.63;;;13.05;87.99
16821;BME280;8527;49.740;6.604;2023-04-28T23:01:23;99561.38;;;13.00;86.77
16821;BME280;8527;49.740;6.604;2023-04-28T23:06:22;99555.28;;;12.84;87.62
16821;BME280;8527;49.740;6.604;2023-04-28T23:11:26;99554.13;;;12.72;88.11
16821;BME280;8527;49.740;6.604;2023-04-28T23:16:27;99554.50;;;12.69;89.36
16821;BME280;8527;49.740;6.604;2023-04-28T23:21:26;99556.81;;;12.57;88.21
16821;BME280;8527;49.740;6.604;2023-04-28T23:26:28;99561.50;;;12.55;88.97
16821;BME280;8527;49.740;6.604;2023-04-28T23:31:26;99557.75;;;12.49;88.80
16821;BME280;8527;49.740;6.604;2023-04-28T23:36:25;99545.63;;;12.46;88.66
16821;BME280;8527;49.740;6.604;2023-04-28T23:41:24;99539.97;;;12.34;89.09
16821;BME280;8527;49.740;6.604;2023-04-28T23:46:28;99547.41;;;12.09;89.21
16821;BME280;8527;49.740;6.604;2023-04-28T23:51:27;99547.16;;;12.04;89.56
16821;BME280;8527;49.740;6.604;2023-04-28T23:56:30;99544.00;;;12.00;89.70
